sensor_id;sensor_type;location;lat;lon;timestamp;P1;durP1;ratioP1;P2;durP2;ratioP2
80117;SDS011;69424;48.770;-1.564;2024-02-28T00:00:36;6.60;;;2.40;;
80117;SDS011;69424;48.770;-1.564;2024-02-28T00:01:30;7.50;;;2.80;;
80117;SDS011;69424;48.770;-1.564;2024-02-28T00:02:03;7.60;;;2.60;;
80117;SDS011;69424;48.770;-1.564;2024-02-28T00:04:20;6.80;;;2.80;;
80117;SDS011;69424;48.770;-1.564;2024-02-28T00:05:28;5.60;;;2.20;;
80117;SDS011;69424;48.770;-1.564;2024-02-28T00:06:39;7.10;;;2.00;;
80117;SDS011;69424;48.770;-1.564;2024-02-28T00:07:12;4.70;;;2.10;;
80117;SDS011;69424;48.770;-1.564;2024-02-28T00:07:46;7.10;;;2.30;;
80117;SDS011;69424;48.770;-1.564;2024-02-28T00:08:23;6.00;;;2.50;;
80117;SDS011;69424;48.770;-1.564;2024-02-28T00:08:56;4.80;;;2.50;;
80117;SDS011;69424;48.770;-1.564;2024-02-28T00:09:30;6.30;;;2.50;;
80117;SDS011;69424;48.770;-1.564;2024-02-28T00:10:03;3.60;;;2.10;;
80117;SDS011;69424;48.770;-1.564;2024-02-28T00:10:36;5.30;;;2.50;;
80117;SDS011;69424;48.770;-1.564;2024-02-28T00:11:10;6.10;;;2.40;;
80117;SDS011;69424;48.770;-1.564;2024-02-28T00:11:44;7.90;;;2.50;;
80117;SDS011;69424;48.770;-1.564;2024-02-28T00:12:19;5.30;;;2.50;;
80117;SDS011;69424;48.770;-1.564;2024-02-28T00:12:52;6.60;;;2.70;;
80117;SDS011;69424;48.770;-1.564;2024-02-28T00:13:27;4.10;;;2.40;;
80117;SDS011;69424;48.770;-1.564;2024-02-28T00:14:00;8.70;;;2.10;;
80117;SDS011;69424;48.770;-1.564;2024-02-28T00:14:36;7.40;;;2.50;;
80117;SDS011;69424;48.770;-1.564;2024-02-28T00:15:10;6.90;;;2.50;;
80117;SDS011;69424;48.770;-1.564;2024-02-28T00:15:44;5.20;;;2.50;;
80117;SDS011;69424;48.770;-1.564;2024-02-28T00:16:17;4.50;;;2.20;;
80117;SDS011;69424;48.770;-1.564;2024-02-28T00:17:23;8.30;;;2.50;;
80117;SDS011;69424;48.770;-1.564;2024-02-28T00:17:58;6.40;;;2.30;;
80117;SDS011;69424;48.770;-1.564;2024-02-28T00:18:31;5.10;;;2.50;;
80117;SDS011;69424;48.770;-1.564;2024-02-28T00:19:04;5.30;;;2.70;;
80117;SDS011;69424;48.770;-1.564;2024-02-28T00:20:11;4.10;;;2.40;;
80117;SDS011;69424;48.770;-1.564;2024-02-28T00:20:49;5.00;;;2.60;;
80117;SDS011;69424;48.770;-1.564;2024-02-28T00:21:22;7.10;;;3.00;;
80117;SDS011;69424;48.770;-1.564;2024-02-28T00:21:57;8.50;;;2.60;;
80117;SDS011;69424;48.770;-1.564;2024-02-28T00:22:33;5.40;;;2.50;;
80117;SDS011;69424;48.770;-1.564;2024-02-28T00:23:06;4.20;;;2.70;;
80117;SDS011;69424;48.770;-1.564;2024-02-28T00:23:39;6.10;;;2.70;;
80117;SDS011;69424;48.770;-1.564;2024-02-28T00:24:13;7.00;;;2.50;;
80117;SDS011;69424;48.770;-1.564;2024-02-28T00:24:46;5.30;;;2.90;;
80117;SDS011;69424;48.770;-1.564;2024-02-28T00:25:20;6.20;;;2.30;;
80117;SDS011;69424;48.770;-1.564;2024-02-28T00:25:53;4.30;;;3.10;;
80117;SDS011;69424;48.770;-1.564;2024-02-28T00:26:26;8.60;;;2.90;;
80117;SDS011;69424;48.770;-1.564;2024-02-28T00:27:03;7.10;;;3.00;;
80117;SDS011;69424;48.770;-1.564;2024-02-28T00:27:37;7.90;;;2.90;;
80117;SDS011;69424;48.770;-1.564;2024-02-28T00:28:10;6.10;;;2.80;;
80117;SDS011;69424;48.770;-1.564;2024-02-28T00:28:43;5.30;;;2.80;;
80117;SDS011;69424;48.770;-1.564;2024-02-28T00:29:17;6.40;;;2.80;;
80117;SDS011;69424;48.770;-1.564;2024-02-28T00:29:50;6.20;;;2.60;;
80117;SDS011;69424;48.770;-1.564;2024-02-28T00:30:23;5.70;;;3.00;;
80117;SDS011;69424;48.770;-1.564;2024-02-28T00:30:56;9.40;;;3.50;;
80117;SDS011;69424;48.770;-1.564;2024-02-28T00:31:30;7.30;;;3.00;;
80117;SDS011;69424;48.770;-1.564;2024-02-28T00:32:03;5.40;;;2.80;;
80117;SDS011;69424;48.770;-1.564;2024-02-28T00:32:37;5.60;;;3.60;;
80117;SDS011;69424;48.770;-1.564;2024-02-28T00:33:10;6.30;;;2.90;;
80117;SDS011;69424;48.770;-1.564;2024-02-28T00:33:43;8.50;;;2.80;;
80117;SDS011;69424;48.770;-1.564;2024-02-28T00:34:17;5.30;;;3.00;;
80117;SDS011;69424;48.770;-1.564;2024-02-28T00:34:59;7.60;;;3.20;;
80117;SDS011;69424;48.770;-1.564;2024-02-28T00:35:32;7.20;;;3.20;;
80117;SDS011;69424;48.770;-1.564;2024-02-28T00:36:06;4.80;;;2.50;;
80117;SDS011;69424;48.770;-1.564;2024-02-28T00:36:50;6.90;;;2.70;;
80117;SDS011;69424;48.770;-1.564;2024-02-28T00:37:28;6.40;;;3.20;;
80117;SDS011;69424;48.770;-1.564;2024-02-28T00:38:01;6.40;;;2.70;;
80117;SDS011;69424;48.770;-1.564;2024-02-28T00:38:35;8.80;;;2.90;;
80117;SDS011;69424;48.770;-1.564;2024-02-28T00:39:49;5.30;;;2.80;;
80117;SDS011;69424;48.770;-1.564;2024-02-28T00:40:22;6.60;;;3.00;;
80117;SDS011;69424;48.770;-1.564;2024-02-28T00:40:57;6.00;;;2.60;;
80117;SDS011;69424;48.770;-1.564;2024-02-28T00:41:31;9.30;;;2.80;;
80117;SDS011;69424;48.770;-1.564;2024-02-28T00:42:10;7.90;;;2.90;;
80117;SDS011;69424;48.770;-1.564;2024-02-28T00:42:46;5.50;;;3.30;;
80117;SDS011;69424;48.770;-1.564;2024-02-28T00:43:20;5.30;;;2.80;;
80117;SDS011;69424;48.770;-1.564;2024-02-28T00:43:53;6.10;;;2.80;;
80117;SDS011;69424;48.770;-1.564;2024-02-28T00:44:27;6.00;;;2.60;;
80117;SDS011;69424;48.770;-1.564;2024-02-28T00:45:08;5.80;;;3.10;;
80117;SDS011;69424;48.770;-1.564;2024-02-28T00:45:47;4.80;;;2.70;;
80117;SDS011;69424;48.770;-1.564;2024-02-28T00:46:20;8.60;;;3.50;;
80117;SDS011;69424;48.770;-1.564;2024-02-28T00:47:03;7.80;;;3.20;;
80117;SDS011;69424;48.770;-1.564;2024-02-28T00:47:38;7.00;;;3.40;;
80117;SDS011;69424;48.770;-1.564;2024-02-28T00:48:14;4.40;;;2.70;;
80117;SDS011;69424;48.770;-1.564;2024-02-28T00:48:47;7.70;;;3.20;;
80117;SDS011;69424;48.770;-1.564;2024-02-28T00:49:21;5.50;;;3.10;;
80117;SDS011;69424;48.770;-1.564;2024-02-28T00:49:54;6.80;;;3.30;;
80117;SDS011;69424;48.770;-1.564;2024-02-28T00:50:27;6.50;;;2.70;;
80117;SDS011;69424;48.770;-1.564;2024-02-28T00:51:02;6.50;;;3.10;;
80117;SDS011;69424;48.770;-1.564;2024-02-28T00:51:43;6.10;;;2.90;;
80117;SDS011;69424;48.770;-1.564;2024-02-28T00:52:19;9.00;;;3.20;;
80117;SDS011;69424;48.770;-1.564;2024-02-28T00:52:52;8.70;;;3.40;;
80117;SDS011;69424;48.770;-1.564;2024-02-28T00:53:26;7.40;;;3.10;;
80117;SDS011;69424;48.770;-1.564;2024-02-28T00:53:59;7.10;;;3.00;;
80117;SDS011;69424;48.770;-1.564;2024-02-28T00:54:32;7.50;;;3.50;;
80117;SDS011;69424;48.770;-1.564;2024-02-28T00:55:09;5.20;;;3.00;;
80117;SDS011;69424;48.770;-1.564;2024-02-28T00:55:45;7.10;;;3.60;;
80117;SDS011;69424;48.770;-1.564;2024-02-28T00:56:19;8.70;;;3.60;;
80117;SDS011;69424;48.770;-1.564;2024-02-28T00:56:52;7.20;;;3.60;;
80117;SDS011;69424;48.770;-1.564;2024-02-28T00:57:26;5.60;;;3.00;;
80117;SDS011;69424;48.770;-1.564;2024-02-28T00:58:03;6.00;;;3.50;;
80117;SDS011;69424;48.770;-1.564;2024-02-28T00:58:36;4.60;;;3.40;;
80117;SDS011;69424;48.770;-1.564;2024-02-28T00:59:09;11.30;;;3.50;;
80117;SDS011;69424;48.770;-1.564;2024-02-28T00:59:45;5.40;;;3.30;;
80117;SDS011;69424;48.770;-1.564;2024-02-28T01:00:19;6.00;;;3.10;;
80117;SDS011;69424;48.770;-1.564;2024-02-28T01:00:52;6.00;;;3.30;;
80117;SDS011;69424;48.770;-1.564;2024-02-28T01:01:25;9.70;;;3.10;;
80117;SDS011;69424;48.770;-1.564;2024-02-28T01:02:00;7.40;;;3.10;;
80117;SDS011;69424;48.770;-1.564;2024-02-28T01:02:33;7.10;;;3.20;;
80117;SDS011;69424;48.770;-1.564;2024-02-28T01:03:41;6.10;;;3.20;;
80117;SDS011;69424;48.770;-1.564;2024-02-28T01:04:14;8.40;;;3.40;;
80117;SDS011;69424;48.770;-1.564;2024-02-28T01:04:48;8.30;;;3.40;;
80117;SDS011;69424;48.770;-1.564;2024-02-28T01:05:32;7.40;;;3.00;;
80117;SDS011;69424;48.770;-1.564;2024-02-28T01:06:05;9.00;;;3.20;;
80117;SDS011;69424;48.770;-1.564;2024-02-28T01:06:39;5.80;;;2.80;;
80117;SDS011;69424;48.770;-1.564;2024-02-28T01:07:12;7.00;;;3.50;;
80117;SDS011;69424;48.770;-1.564;2024-02-28T01:07:46;5.70;;;3.20;;
80117;SDS011;69424;48.770;-1.564;2024-02-28T01:08:21;6.80;;;3.50;;
80117;SDS011;69424;48.770;-1.564;2024-02-28T01:08:55;10.10;;;3.60;;
80117;SDS011;69424;48.770;-1.564;2024-02-28T01:09:28;7.20;;;4.10;;
80117;SDS011;69424;48.770;-1.564;2024-02-28T01:10:09;12.30;;;3.80;;
80117;SDS011;69424;48.770;-1.564;2024-02-28T01:10:52;9.40;;;4.40;;
80117;SDS011;69424;48.770;-1.564;2024-02-28T01:11:33;8.60;;;3.70;;
80117;SDS011;69424;48.770;-1.564;2024-02-28T01:12:07;9.40;;;3.90;;
80117;SDS011;69424;48.770;-1.564;2024-02-28T01:12:40;10.10;;;3.70;;
80117;SDS011;69424;48.770;-1.564;2024-02-28T01:13:14;10.60;;;4.10;;
80117;SDS011;69424;48.770;-1.564;2024-02-28T01:14:18;8.30;;;4.00;;
80117;SDS011;69424;48.770;-1.564;2024-02-28T01:14:51;8.20;;;3.80;;
80117;SDS011;69424;48.770;-1.564;2024-02-28T01:15:26;7.70;;;4.40;;
80117;SDS011;69424;48.770;-1.564;2024-02-28T01:16:36;6.90;;;3.10;;
80117;SDS011;69424;48.770;-1.564;2024-02-28T01:17:12;8.60;;;3.20;;
80117;SDS011;69424;48.770;-1.564;2024-02-28T01:17:45;8.30;;;3.20;;
80117;SDS011;69424;48.770;-1.564;2024-02-28T01:18:18;4.60;;;2.50;;
80117;SDS011;69424;48.770;-1.564;2024-02-28T01:18:52;9.30;;;3.10;;
80117;SDS011;69424;48.770;-1.564;2024-02-28T01:19:25;4.60;;;2.70;;
80117;SDS011;69424;48.770;-1.564;2024-02-28T01:19:58;6.00;;;2.80;;
80117;SDS011;69424;48.770;-1.564;2024-02-28T01:20:32;5.40;;;2.90;;
80117;SDS011;69424;48.770;-1.564;2024-02-28T01:21:38;6.90;;;2.50;;
80117;SDS011;69424;48.770;-1.564;2024-02-28T01:22:12;5.90;;;2.60;;
80117;SDS011;69424;48.770;-1.564;2024-02-28T01:22:46;8.40;;;2.80;;
80117;SDS011;69424;48.770;-1.564;2024-02-28T01:23:19;8.00;;;2.70;;
80117;SDS011;69424;48.770;-1.564;2024-02-28T01:23:52;9.90;;;2.80;;
80117;SDS011;69424;48.770;-1.564;2024-02-28T01:24:25;7.90;;;3.00;;
80117;SDS011;69424;48.770;-1.564;2024-02-28T01:24:59;5.70;;;2.60;;
80117;SDS011;69424;48.770;-1.564;2024-02-28T01:25:38;6.60;;;2.70;;
80117;SDS011;69424;48.770;-1.564;2024-02-28T01:26:12;6.10;;;2.60;;
80117;SDS011;69424;48.770;-1.564;2024-02-28T01:26:45;6.90;;;3.00;;
80117;SDS011;69424;48.770;-1.564;2024-02-28T01:27:18;5.80;;;2.70;;
80117;SDS011;69424;48.770;-1.564;2024-02-28T01:27:51;6.60;;;2.50;;
80117;SDS011;69424;48.770;-1.564;2024-02-28T01:28:25;9.30;;;3.00;;
80117;SDS011;69424;48.770;-1.564;2024-02-28T01:28:59;5.50;;;2.40;;
80117;SDS011;69424;48.770;-1.564;2024-02-28T01:29:33;6.90;;;2.90;;
80117;SDS011;69424;48.770;-1.564;2024-02-28T01:30:39;7.50;;;2.80;;
80117;SDS011;69424;48.770;-1.564;2024-02-28T01:31:13;5.60;;;2.50;;
80117;SDS011;69424;48.770;-1.564;2024-02-28T01:31:46;8.10;;;2.70;;
80117;SDS011;69424;48.770;-1.564;2024-02-28T01:32:19;7.80;;;3.00;;
80117;SDS011;69424;48.770;-1.564;2024-02-28T01:33:08;6.40;;;2.70;;
80117;SDS011;69424;48.770;-1.564;2024-02-28T01:34:01;8.20;;;2.70;;
80117;SDS011;69424;48.770;-1.564;2024-02-28T01:34:34;4.60;;;2.50;;
80117;SDS011;69424;48.770;-1.564;2024-02-28T01:35:08;5.70;;;2.90;;
80117;SDS011;69424;48.770;-1.564;2024-02-28T01:35:42;7.00;;;2.90;;
80117;SDS011;69424;48.770;-1.564;2024-02-28T01:36:31;7.10;;;2.60;;
80117;SDS011;69424;48.770;-1.564;2024-02-28T01:37:04;6.50;;;2.60;;
80117;SDS011;69424;48.770;-1.564;2024-02-28T01:38:26;6.00;;;3.00;;
80117;SDS011;69424;48.770;-1.564;2024-02-28T01:39:02;8.10;;;3.00;;
80117;SDS011;69424;48.770;-1.564;2024-02-28T01:39:36;4.50;;;3.40;;
80117;SDS011;69424;48.770;-1.564;2024-02-28T01:40:09;9.10;;;3.90;;
80117;SDS011;69424;48.770;-1.564;2024-02-28T01:40:46;6.50;;;3.40;;
80117;SDS011;69424;48.770;-1.564;2024-02-28T01:41:20;6.50;;;3.50;;
80117;SDS011;69424;48.770;-1.564;2024-02-28T01:41:53;6.40;;;3.20;;
80117;SDS011;69424;48.770;-1.564;2024-02-28T01:42:27;5.60;;;3.90;;
80117;SDS011;69424;48.770;-1.564;2024-02-28T01:43:03;8.30;;;3.40;;
80117;SDS011;69424;48.770;-1.564;2024-02-28T01:43:39;7.20;;;3.90;;
80117;SDS011;69424;48.770;-1.564;2024-02-28T01:44:13;8.70;;;3.50;;
80117;SDS011;69424;48.770;-1.564;2024-02-28T01:44:47;6.40;;;3.70;;
80117;SDS011;69424;48.770;-1.564;2024-02-28T01:45:23;7.40;;;3.90;;
80117;SDS011;69424;48.770;-1.564;2024-02-28T01:45:59;9.80;;;4.80;;
80117;SDS011;69424;48.770;-1.564;2024-02-28T01:46:36;8.40;;;4.10;;
80117;SDS011;69424;48.770;-1.564;2024-02-28T01:47:12;6.90;;;4.20;;
80117;SDS011;69424;48.770;-1.564;2024-02-28T01:47:46;6.90;;;3.70;;
80117;SDS011;69424;48.770;-1.564;2024-02-28T01:48:20;6.40;;;3.60;;
80117;SDS011;69424;48.770;-1.564;2024-02-28T01:48:56;8.60;;;4.10;;
80117;SDS011;69424;48.770;-1.564;2024-02-28T01:49:31;8.30;;;3.50;;
80117;SDS011;69424;48.770;-1.564;2024-02-28T01:50:05;5.20;;;3.40;;
80117;SDS011;69424;48.770;-1.564;2024-02-28T01:50:41;6.20;;;3.10;;
80117;SDS011;69424;48.770;-1.564;2024-02-28T01:51:15;4.90;;;3.40;;
80117;SDS011;69424;48.770;-1.564;2024-02-28T01:51:49;6.30;;;2.80;;
80117;SDS011;69424;48.770;-1.564;2024-02-28T01:52:24;6.80;;;3.10;;
80117;SDS011;69424;48.770;-1.564;2024-02-28T01:52:57;6.80;;;3.30;;
80117;SDS011;69424;48.770;-1.564;2024-02-28T01:53:31;8.60;;;3.10;;
80117;SDS011;69424;48.770;-1.564;2024-02-28T01:54:04;7.20;;;2.80;;
80117;SDS011;69424;48.770;-1.564;2024-02-28T01:54:39;5.90;;;2.70;;
80117;SDS011;69424;48.770;-1.564;2024-02-28T01:55:12;6.90;;;3.20;;
80117;SDS011;69424;48.770;-1.564;2024-02-28T01:55:46;6.60;;;3.20;;
80117;SDS011;69424;48.770;-1.564;2024-02-28T01:56:20;10.50;;;3.20;;
80117;SDS011;69424;48.770;-1.564;2024-02-28T01:56:56;5.20;;;3.10;;
80117;SDS011;69424;48.770;-1.564;2024-02-28T01:57:29;7.70;;;3.10;;
80117;SDS011;69424;48.770;-1.564;2024-02-28T01:58:03;5.80;;;3.00;;
80117;SDS011;69424;48.770;-1.564;2024-02-28T01:58:45;7.30;;;3.40;;
80117;SDS011;69424;48.770;-1.564;2024-02-28T01:59:20;9.30;;;3.90;;
80117;SDS011;69424;48.770;-1.564;2024-02-28T01:59:57;5.10;;;3.10;;
80117;SDS011;69424;48.770;-1.564;2024-02-28T02:00:33;7.30;;;3.10;;
80117;SDS011;69424;48.770;-1.564;2024-02-28T02:01:07;5.90;;;3.10;;
80117;SDS011;69424;48.770;-1.564;2024-02-28T02:01:43;5.50;;;2.80;;
80117;SDS011;69424;48.770;-1.564;2024-02-28T02:02:16;12.40;;;3.40;;
80117;SDS011;69424;48.770;-1.564;2024-02-28T02:02:50;6.70;;;3.50;;
80117;SDS011;69424;48.770;-1.564;2024-02-28T02:03:44;6.00;;;4.00;;
80117;SDS011;69424;48.770;-1.564;2024-02-28T02:04:17;5.60;;;2.80;;
80117;SDS011;69424;48.770;-1.564;2024-02-28T02:04:51;6.60;;;2.90;;
80117;SDS011;69424;48.770;-1.564;2024-02-28T02:05:28;8.10;;;3.60;;
80117;SDS011;69424;48.770;-1.564;2024-02-28T02:06:02;10.80;;;3.40;;
80117;SDS011;69424;48.770;-1.564;2024-02-28T02:06:37;6.20;;;3.20;;
80117;SDS011;69424;48.770;-1.564;2024-02-28T02:07:17;10.90;;;3.30;;
80117;SDS011;69424;48.770;-1.564;2024-02-28T02:07:50;7.20;;;3.20;;
80117;SDS011;69424;48.770;-1.564;2024-02-28T02:08:24;7.40;;;3.30;;
80117;SDS011;69424;48.770;-1.564;2024-02-28T02:08:57;5.60;;;2.70;;
80117;SDS011;69424;48.770;-1.564;2024-02-28T02:09:30;7.70;;;3.00;;
80117;SDS011;69424;48.770;-1.564;2024-02-28T02:10:05;4.10;;;2.60;;
80117;SDS011;69424;48.770;-1.564;2024-02-28T02:10:48;4.50;;;2.40;;
80117;SDS011;69424;48.770;-1.564;2024-02-28T02:11:21;6.50;;;2.90;;
80117;SDS011;69424;48.770;-1.564;2024-02-28T02:12:06;6.20;;;3.00;;
80117;SDS011;69424;48.770;-1.564;2024-02-28T02:12:39;7.30;;;2.80;;
80117;SDS011;69424;48.770;-1.564;2024-02-28T02:13:50;4.40;;;2.20;;
80117;SDS011;69424;48.770;-1.564;2024-02-28T02:14:25;5.40;;;2.60;;
80117;SDS011;69424;48.770;-1.564;2024-02-28T02:14:58;7.50;;;2.60;;
80117;SDS011;69424;48.770;-1.564;2024-02-28T02:15:32;7.10;;;2.90;;
80117;SDS011;69424;48.770;-1.564;2024-02-28T02:16:05;4.90;;;2.30;;
80117;SDS011;69424;48.770;-1.564;2024-02-28T02:16:38;6.20;;;3.00;;
80117;SDS011;69424;48.770;-1.564;2024-02-28T02:17:12;4.50;;;2.90;;
80117;SDS011;69424;48.770;-1.564;2024-02-28T02:17:45;7.10;;;2.50;;
80117;SDS011;69424;48.770;-1.564;2024-02-28T02:18:18;5.40;;;2.40;;
80117;SDS011;69424;48.770;-1.564;2024-02-28T02:18:52;4.80;;;2.20;;
80117;SDS011;69424;48.770;-1.564;2024-02-28T02:19:25;7.40;;;3.20;;
80117;SDS011;69424;48.770;-1.564;2024-02-28T02:19:59;5.60;;;3.00;;
80117;SDS011;69424;48.770;-1.564;2024-02-28T02:20:33;3.90;;;2.40;;
80117;SDS011;69424;48.770;-1.564;2024-02-28T02:21:14;4.40;;;2.10;;
80117;SDS011;69424;48.770;-1.564;2024-02-28T02:21:52;5.20;;;2.30;;
80117;SDS011;69424;48.770;-1.564;2024-02-28T02:22:27;3.90;;;2.00;;
80117;SDS011;69424;48.770;-1.564;2024-02-28T02:23:01;4.00;;;2.10;;
80117;SDS011;69424;48.770;-1.564;2024-02-28T02:23:36;4.00;;;2.20;;
80117;SDS011;69424;48.770;-1.564;2024-02-28T02:24:13;5.00;;;2.30;;
80117;SDS011;69424;48.770;-1.564;2024-02-28T02:24:52;3.60;;;2.20;;
80117;SDS011;69424;48.770;-1.564;2024-02-28T02:25:43;3.30;;;2.10;;
80117;SDS011;69424;48.770;-1.564;2024-02-28T02:26:20;6.80;;;3.10;;
80117;SDS011;69424;48.770;-1.564;2024-02-28T02:26:57;7.10;;;2.80;;
80117;SDS011;69424;48.770;-1.564;2024-02-28T02:27:32;6.30;;;3.00;;
80117;SDS011;69424;48.770;-1.564;2024-02-28T02:28:20;7.20;;;3.00;;
80117;SDS011;69424;48.770;-1.564;2024-02-28T02:28:53;5.50;;;2.90;;
80117;SDS011;69424;48.770;-1.564;2024-02-28T02:29:27;10.90;;;3.20;;
80117;SDS011;69424;48.770;-1.564;2024-02-28T02:30:01;10.10;;;3.10;;
80117;SDS011;69424;48.770;-1.564;2024-02-28T02:30:35;6.00;;;3.10;;
80117;SDS011;69424;48.770;-1.564;2024-02-28T02:31:08;7.10;;;3.10;;
80117;SDS011;69424;48.770;-1.564;2024-02-28T02:31:43;8.70;;;2.80;;
80117;SDS011;69424;48.770;-1.564;2024-02-28T02:32:16;7.80;;;3.10;;
80117;SDS011;69424;48.770;-1.564;2024-02-28T02:32:57;6.40;;;3.50;;
80117;SDS011;69424;48.770;-1.564;2024-02-28T02:33:30;5.50;;;3.10;;
80117;SDS011;69424;48.770;-1.564;2024-02-28T02:34:03;6.50;;;3.30;;
80117;SDS011;69424;48.770;-1.564;2024-02-28T02:34:37;8.70;;;3.40;;
80117;SDS011;69424;48.770;-1.564;2024-02-28T02:35:10;4.60;;;2.40;;
80117;SDS011;69424;48.770;-1.564;2024-02-28T02:35:44;6.90;;;2.90;;
80117;SDS011;69424;48.770;-1.564;2024-02-28T02:36:19;6.60;;;3.00;;
80117;SDS011;69424;48.770;-1.564;2024-02-28T02:36:52;5.40;;;2.40;;
80117;SDS011;69424;48.770;-1.564;2024-02-28T02:37:25;5.40;;;2.90;;
80117;SDS011;69424;48.770;-1.564;2024-02-28T02:37:59;8.80;;;2.80;;
80117;SDS011;69424;48.770;-1.564;2024-02-28T02:38:46;6.90;;;2.80;;
80117;SDS011;69424;48.770;-1.564;2024-02-28T02:39:20;5.10;;;2.60;;
80117;SDS011;69424;48.770;-1.564;2024-02-28T02:39:53;3.70;;;2.80;;
80117;SDS011;69424;48.770;-1.564;2024-02-28T02:40:27;9.30;;;3.40;;
80117;SDS011;69424;48.770;-1.564;2024-02-28T02:41:07;5.10;;;2.90;;
80117;SDS011;69424;48.770;-1.564;2024-02-28T02:41:44;8.50;;;3.30;;
80117;SDS011;69424;48.770;-1.564;2024-02-28T02:42:17;6.10;;;2.70;;
80117;SDS011;69424;48.770;-1.564;2024-02-28T02:42:50;7.20;;;3.20;;
80117;SDS011;69424;48.770;-1.564;2024-02-28T02:43:24;6.10;;;2.90;;
80117;SDS011;69424;48.770;-1.564;2024-02-28T02:43:57;6.80;;;2.90;;
80117;SDS011;69424;48.770;-1.564;2024-02-28T02:44:31;5.10;;;2.90;;
80117;SDS011;69424;48.770;-1.564;2024-02-28T02:45:04;6.60;;;3.00;;
80117;SDS011;69424;48.770;-1.564;2024-02-28T02:45:37;5.90;;;2.70;;
80117;SDS011;69424;48.770;-1.564;2024-02-28T02:46:11;4.30;;;2.80;;
80117;SDS011;69424;48.770;-1.564;2024-02-28T02:47:17;7.40;;;3.20;;
80117;SDS011;69424;48.770;-1.564;2024-02-28T02:47:50;3.10;;;2.40;;
80117;SDS011;69424;48.770;-1.564;2024-02-28T02:48:23;6.80;;;2.70;;
80117;SDS011;69424;48.770;-1.564;2024-02-28T02:48:57;7.40;;;2.80;;
80117;SDS011;69424;48.770;-1.564;2024-02-28T02:49:30;10.00;;;3.00;;
80117;SDS011;69424;48.770;-1.564;2024-02-28T02:50:04;5.60;;;2.80;;
80117;SDS011;69424;48.770;-1.564;2024-02-28T02:50:38;7.00;;;2.60;;
80117;SDS011;69424;48.770;-1.564;2024-02-28T02:51:12;5.70;;;2.40;;
80117;SDS011;69424;48.770;-1.564;2024-02-28T02:51:45;6.70;;;2.60;;
80117;SDS011;69424;48.770;-1.564;2024-02-28T02:52:32;5.70;;;2.30;;
80117;SDS011;69424;48.770;-1.564;2024-02-28T02:53:18;5.60;;;2.50;;
80117;SDS011;69424;48.770;-1.564;2024-02-28T02:53:51;6.60;;;2.70;;
80117;SDS011;69424;48.770;-1.564;2024-02-28T02:54:26;6.10;;;2.60;;
80117;SDS011;69424;48.770;-1.564;2024-02-28T02:55:00;5.00;;;2.70;;
80117;SDS011;69424;48.770;-1.564;2024-02-28T02:55:33;5.50;;;2.60;;
80117;SDS011;69424;48.770;-1.564;2024-02-28T02:56:06;6.60;;;2.60;;
80117;SDS011;69424;48.770;-1.564;2024-02-28T02:56:42;6.40;;;2.10;;
80117;SDS011;69424;48.770;-1.564;2024-02-28T02:57:16;8.00;;;2.90;;
80117;SDS011;69424;48.770;-1.564;2024-02-28T02:57:49;6.10;;;3.00;;
80117;SDS011;69424;48.770;-1.564;2024-02-28T02:58:23;7.80;;;2.60;;
80117;SDS011;69424;48.770;-1.564;2024-02-28T02:58:59;4.50;;;2.20;;
80117;SDS011;69424;48.770;-1.564;2024-02-28T02:59:32;6.70;;;2.60;;
80117;SDS011;69424;48.770;-1.564;2024-02-28T03:00:07;6.30;;;2.80;;
80117;SDS011;69424;48.770;-1.564;2024-02-28T03:00:44;6.60;;;2.50;;
80117;SDS011;69424;48.770;-1.564;2024-02-28T03:01:17;5.40;;;2.90;;
80117;SDS011;69424;48.770;-1.564;2024-02-28T03:01:53;6.20;;;2.60;;
80117;SDS011;69424;48.770;-1.564;2024-02-28T03:02:26;7.10;;;2.20;;
80117;SDS011;69424;48.770;-1.564;2024-02-28T03:02:59;8.60;;;2.40;;
80117;SDS011;69424;48.770;-1.564;2024-02-28T03:03:33;3.30;;;2.80;;
80117;SDS011;69424;48.770;-1.564;2024-02-28T03:04:06;4.10;;;2.10;;
80117;SDS011;69424;48.770;-1.564;2024-02-28T03:04:40;4.90;;;2.30;;
80117;SDS011;69424;48.770;-1.564;2024-02-28T03:05:14;4.60;;;2.60;;
80117;SDS011;69424;48.770;-1.564;2024-02-28T03:05:55;6.30;;;2.20;;
80117;SDS011;69424;48.770;-1.564;2024-02-28T03:06:28;5.20;;;2.60;;
80117;SDS011;69424;48.770;-1.564;2024-02-28T03:07:04;4.30;;;2.10;;
80117;SDS011;69424;48.770;-1.564;2024-02-28T03:07:37;3.40;;;2.10;;
80117;SDS011;69424;48.770;-1.564;2024-02-28T03:08:10;7.70;;;2.60;;
80117;SDS011;69424;48.770;-1.564;2024-02-28T03:08:43;6.60;;;2.50;;
80117;SDS011;69424;48.770;-1.564;2024-02-28T03:09:17;4.40;;;2.50;;
80117;SDS011;69424;48.770;-1.564;2024-02-28T03:09:50;5.90;;;2.10;;
80117;SDS011;69424;48.770;-1.564;2024-02-28T03:10:23;5.40;;;2.40;;
80117;SDS011;69424;48.770;-1.564;2024-02-28T03:10:57;6.10;;;2.30;;
80117;SDS011;69424;48.770;-1.564;2024-02-28T03:12:00;5.20;;;2.30;;
80117;SDS011;69424;48.770;-1.564;2024-02-28T03:12:33;6.00;;;2.60;;
80117;SDS011;69424;48.770;-1.564;2024-02-28T03:13:07;3.70;;;2.40;;
80117;SDS011;69424;48.770;-1.564;2024-02-28T03:13:42;5.90;;;2.20;;
80117;SDS011;69424;48.770;-1.564;2024-02-28T03:14:51;6.30;;;2.70;;
80117;SDS011;69424;48.770;-1.564;2024-02-28T03:15:25;5.50;;;2.50;;
80117;SDS011;69424;48.770;-1.564;2024-02-28T03:15:58;5.20;;;2.30;;
80117;SDS011;69424;48.770;-1.564;2024-02-28T03:16:31;5.30;;;2.30;;
80117;SDS011;69424;48.770;-1.564;2024-02-28T03:17:05;7.80;;;2.60;;
80117;SDS011;69424;48.770;-1.564;2024-02-28T03:17:44;6.20;;;2.40;;
80117;SDS011;69424;48.770;-1.564;2024-02-28T03:18:18;4.60;;;2.70;;
80117;SDS011;69424;48.770;-1.564;2024-02-28T03:18:53;10.20;;;2.60;;
80117;SDS011;69424;48.770;-1.564;2024-02-28T03:19:27;6.60;;;2.60;;
80117;SDS011;69424;48.770;-1.564;2024-02-28T03:20:00;4.20;;;2.20;;
80117;SDS011;69424;48.770;-1.564;2024-02-28T03:20:33;5.80;;;2.60;;
80117;SDS011;69424;48.770;-1.564;2024-02-28T03:21:07;5.10;;;2.60;;
80117;SDS011;69424;48.770;-1.564;2024-02-28T03:21:42;5.70;;;2.50;;
80117;SDS011;69424;48.770;-1.564;2024-02-28T03:22:16;6.40;;;2.80;;
80117;SDS011;69424;48.770;-1.564;2024-02-28T03:22:49;6.60;;;3.00;;
80117;SDS011;69424;48.770;-1.564;2024-02-28T03:23:23;5.60;;;3.00;;
80117;SDS011;69424;48.770;-1.564;2024-02-28T03:23:56;7.80;;;3.10;;
80117;SDS011;69424;48.770;-1.564;2024-02-28T03:24:29;5.40;;;2.40;;
80117;SDS011;69424;48.770;-1.564;2024-02-28T03:25:02;9.10;;;2.90;;
80117;SDS011;69424;48.770;-1.564;2024-02-28T03:25:38;3.20;;;2.50;;
80117;SDS011;69424;48.770;-1.564;2024-02-28T03:26:12;5.80;;;2.50;;
80117;SDS011;69424;48.770;-1.564;2024-02-28T03:26:45;11.30;;;3.10;;
80117;SDS011;69424;48.770;-1.564;2024-02-28T03:27:19;7.60;;;2.30;;
80117;SDS011;69424;48.770;-1.564;2024-02-28T03:27:52;6.40;;;2.50;;
80117;SDS011;69424;48.770;-1.564;2024-02-28T03:28:26;4.10;;;2.50;;
80117;SDS011;69424;48.770;-1.564;2024-02-28T03:28:59;7.10;;;2.70;;
80117;SDS011;69424;48.770;-1.564;2024-02-28T03:29:32;5.40;;;2.60;;
80117;SDS011;69424;48.770;-1.564;2024-02-28T03:31:32;7.60;;;2.20;;
80117;SDS011;69424;48.770;-1.564;2024-02-28T03:32:05;5.20;;;2.90;;
80117;SDS011;69424;48.770;-1.564;2024-02-28T03:32:38;4.20;;;2.30;;
80117;SDS011;69424;48.770;-1.564;2024-02-28T03:33:14;4.30;;;2.70;;
80117;SDS011;69424;48.770;-1.564;2024-02-28T03:33:47;6.60;;;2.60;;
80117;SDS011;69424;48.770;-1.564;2024-02-28T03:34:22;6.60;;;2.90;;
80117;SDS011;69424;48.770;-1.564;2024-02-28T03:34:58;7.80;;;2.80;;
80117;SDS011;69424;48.770;-1.564;2024-02-28T03:35:32;5.00;;;2.60;;
80117;SDS011;69424;48.770;-1.564;2024-02-28T03:36:05;11.10;;;3.30;;
80117;SDS011;69424;48.770;-1.564;2024-02-28T03:36:45;9.60;;;3.30;;
80117;SDS011;69424;48.770;-1.564;2024-02-28T03:37:18;6.80;;;2.50;;
80117;SDS011;69424;48.770;-1.564;2024-02-28T03:37:52;5.10;;;3.00;;
80117;SDS011;69424;48.770;-1.564;2024-02-28T03:38:27;4.90;;;2.80;;
80117;SDS011;69424;48.770;-1.564;2024-02-28T03:39:00;6.00;;;2.60;;